Terminal Aerodrome Forecast
Issued by NWS Blacksburg, VA

Current Version | Previous Version | Text Only | Print | Product List | Glossary Off
Versions: 1 2 3 4 5 6 7 8 9 10 11 12 13 14 15 16 17 18 19 20 21 22 23 24 25 26 27 28 29 30 31 32 33 34 35 36 37 38 39 40 41 42

101
FTUS41 KRNK 240609 AAA
TAFBLF
TAF AMD
KBLF 240609Z 2406/2506 26010KT P6SM SCT005 BKN045 OVC100
      WS020/25045KT
      TEMPO 2406/2408 BKN005
     FM240800 24010KT P6SM OVC005
     FM241400 28009KT P6SM OVC035
     FM241700 28013G23KT P6SM BKN045
     FM242000 28010G20KT P6SM SCT045
     FM250300 28004KT P6SM SCT250=

USA.gov is the U.S. government's official web portal to all federal, state and local government web resources and services.